sensor_id;sensor_type;location;lat;lon;timestamp;temperature;humidity
11239;DHT22;5677;48.488;13.436;2022-07-06T00:00:57;22.50;61.40
11239;DHT22;5677;48.488;13.436;2022-07-06T00:03:24;22.50;61.40
11239;DHT22;5677;48.488;13.436;2022-07-06T00:05:51;22.50;61.80
11239;DHT22;5677;48.488;13.436;2022-07-06T00:08:18;22.50;61.40
11239;DHT22;5677;48.488;13.436;2022-07-06T00:10:45;22.40;61.30
11239;DHT22;5677;48.488;13.436;2022-07-06T00:13:13;22.40;61.30
11239;DHT22;5677;48.488;13.436;2022-07-06T00:15:40;22.40;61.30
11239;DHT22;5677;48.488;13.436;2022-07-06T00:18:07;22.50;61.40
11239;DHT22;5677;48.488;13.436;2022-07-06T00:20:34;22.50;61.50
11239;DHT22;5677;48.488;13.436;2022-07-06T00:23:01;22.50;61.40
11239;DHT22;5677;48.488;13.436;2022-07-06T00:25:28;22.40;61.30
11239;DHT22;5677;48.488;13.436;2022-07-06T00:27:55;22.50;61.40
11239;DHT22;5677;48.488;13.436;2022-07-06T00:30:23;22.40;61.30
11239;DHT22;5677;48.488;13.436;2022-07-06T00:32:50;22.40;61.30
11239;DHT22;5677;48.488;13.436;2022-07-06T00:35:17;22.40;61.30
11239;DHT22;5677;48.488;13.436;2022-07-06T00:37:44;22.40;61.30
11239;DHT22;5677;48.488;13.436;2022-07-06T00:40:11;22.40;61.30
11239;DHT22;5677;48.488;13.436;2022-07-06T00:42:40;22.40;61.30
11239;DHT22;5677;48.488;13.436;2022-07-06T00:45:08;22.40;61.30
11239;DHT22;5677;48.488;13.436;2022-07-06T00:47:37;22.40;61.30
11239;DHT22;5677;48.488;13.436;2022-07-06T00:50:06;22.40;61.30
11239;DHT22;5677;48.488;13.436;2022-07-06T00:52:40;22.40;61.30
11239;DHT22;5677;48.488;13.436;2022-07-06T00:55:08;22.40;61.30
11239;DHT22;5677;48.488;13.436;2022-07-06T00:57:36;22.40;61.30
11239;DHT22;5677;48.488;13.436;2022-07-06T01:00:03;22.40;61.30
11239;DHT22;5677;48.488;13.436;2022-07-06T01:02:31;22.40;61.30
11239;DHT22;5677;48.488;13.436;2022-07-06T01:05:00;22.40;61.40
11239;DHT22;5677;48.488;13.436;2022-07-06T01:07:27;22.40;61.30
11239;DHT22;5677;48.488;13.436;2022-07-06T01:09:55;22.40;61.30
11239;DHT22;5677;48.488;13.436;2022-07-06T01:12:22;22.40;61.40
11239;DHT22;5677;48.488;13.436;2022-07-06T01:14:50;22.40;61.30
11239;DHT22;5677;48.488;13.436;2022-07-06T01:17:17;22.30;61.40
11239;DHT22;5677;48.488;13.436;2022-07-06T01:19:45;22.40;61.40
11239;DHT22;5677;48.488;13.436;2022-07-06T01:22:13;22.30;61.40
11239;DHT22;5677;48.488;13.436;2022-07-06T01:24:40;22.40;61.40
11239;DHT22;5677;48.488;13.436;2022-07-06T01:27:08;22.40;61.40
11239;DHT22;5677;48.488;13.436;2022-07-06T01:29:35;22.40;61.40
11239;DHT22;5677;48.488;13.436;2022-07-06T01:32:02;22.30;61.40
11239;DHT22;5677;48.488;13.436;2022-07-06T01:34:30;22.30;61.40
11239;DHT22;5677;48.488;13.436;2022-07-06T01:36:57;22.30;61.40
11239;DHT22;5677;48.488;13.436;2022-07-06T01:39:25;22.30;61.40
11239;DHT22;5677;48.488;13.436;2022-07-06T01:41:52;22.30;61.40
11239;DHT22;5677;48.488;13.436;2022-07-06T01:44:19;22.30;61.40
11239;DHT22;5677;48.488;13.436;2022-07-06T01:46:46;22.30;61.40
11239;DHT22;5677;48.488;13.436;2022-07-06T01:49:12;22.30;61.40
11239;DHT22;5677;48.488;13.436;2022-07-06T01:51:39;22.30;61.40
11239;DHT22;5677;48.488;13.436;2022-07-06T01:54:06;22.30;61.40
11239;DHT22;5677;48.488;13.436;2022-07-06T01:56:34;22.30;61.40
11239;DHT22;5677;48.488;13.436;2022-07-06T01:59:01;22.30;61.40
11239;DHT22;5677;48.488;13.436;2022-07-06T02:01:28;22.30;61.40
11239;DHT22;5677;48.488;13.436;2022-07-06T02:03:55;22.30;61.40
11239;DHT22;5677;48.488;13.436;2022-07-06T02:06:22;22.30;61.40
11239;DHT22;5677;48.488;13.436;2022-07-06T02:08:49;22.30;61.40
11239;DHT22;5677;48.488;13.436;2022-07-06T02:11:17;22.30;61.40
11239;DHT22;5677;48.488;13.436;2022-07-06T02:13:45;22.30;61.50
11239;DHT22;5677;48.488;13.436;2022-07-06T02:16:12;22.30;61.40
11239;DHT22;5677;48.488;13.436;2022-07-06T02:18:39;22.30;61.40
11239;DHT22;5677;48.488;13.436;2022-07-06T02:21:06;22.30;61.40
11239;DHT22;5677;48.488;13.436;2022-07-06T02:23:33;22.20;61.30
11239;DHT22;5677;48.488;13.436;2022-07-06T02:26:00;22.20;61.40
11239;DHT22;5677;48.488;13.436;2022-07-06T02:28:27;22.30;61.50
11239;DHT22;5677;48.488;13.436;2022-07-06T02:30:55;22.30;61.40
11239;DHT22;5677;48.488;13.436;2022-07-06T02:33:23;22.20;61.40
11239;DHT22;5677;48.488;13.436;2022-07-06T02:35:49;22.30;61.50
11239;DHT22;5677;48.488;13.436;2022-07-06T02:38:16;22.30;61.50
11239;DHT22;5677;48.488;13.436;2022-07-06T02:40:44;22.20;61.40
11239;DHT22;5677;48.488;13.436;2022-07-06T02:43:11;22.20;61.40
11239;DHT22;5677;48.488;13.436;2022-07-06T02:45:38;22.20;61.40
11239;DHT22;5677;48.488;13.436;2022-07-06T02:48:06;22.20;61.40
11239;DHT22;5677;48.488;13.436;2022-07-06T02:50:33;22.20;61.40
11239;DHT22;5677;48.488;13.436;2022-07-06T02:53:00;22.20;61.40
11239;DHT22;5677;48.488;13.436;2022-07-06T02:55:27;22.20;61.40
11239;DHT22;5677;48.488;13.436;2022-07-06T02:57:54;22.20;61.40
11239;DHT22;5677;48.488;13.436;2022-07-06T03:00:21;22.20;61.40
11239;DHT22;5677;48.488;13.436;2022-07-06T03:02:48;22.20;61.40
11239;DHT22;5677;48.488;13.436;2022-07-06T03:05:17;22.20;61.40
11239;DHT22;5677;48.488;13.436;2022-07-06T03:07:44;22.20;61.40
11239;DHT22;5677;48.488;13.436;2022-07-06T03:10:10;22.20;61.40
11239;DHT22;5677;48.488;13.436;2022-07-06T03:12:37;22.20;61.40
11239;DHT22;5677;48.488;13.436;2022-07-06T03:15:05;22.20;61.40
11239;DHT22;5677;48.488;13.436;2022-07-06T03:17:35;22.20;61.40
11239;DHT22;5677;48.488;13.436;2022-07-06T03:20:02;22.20;61.30
11239;DHT22;5677;48.488;13.436;2022-07-06T03:22:31;22.20;61.40
11239;DHT22;5677;48.488;13.436;2022-07-06T03:24:58;22.20;61.40
11239;DHT22;5677;48.488;13.436;2022-07-06T03:27:25;22.20;61.40
11239;DHT22;5677;48.488;13.436;2022-07-06T03:29:52;22.20;61.40
11239;DHT22;5677;48.488;13.436;2022-07-06T03:32:19;22.10;61.30
11239;DHT22;5677;48.488;13.436;2022-07-06T03:34:45;22.20;61.40
11239;DHT22;5677;48.488;13.436;2022-07-06T03:37:12;22.10;61.40
11239;DHT22;5677;48.488;13.436;2022-07-06T03:39:41;22.20;61.40
11239;DHT22;5677;48.488;13.436;2022-07-06T03:42:07;22.20;61.30
11239;DHT22;5677;48.488;13.436;2022-07-06T03:44:34;22.20;61.40
11239;DHT22;5677;48.488;13.436;2022-07-06T03:47:01;22.10;61.30
11239;DHT22;5677;48.488;13.436;2022-07-06T03:49:29;22.10;61.30
11239;DHT22;5677;48.488;13.436;2022-07-06T03:51:56;22.10;61.30
11239;DHT22;5677;48.488;13.436;2022-07-06T03:54:23;22.10;61.40
11239;DHT22;5677;48.488;13.436;2022-07-06T03:56:51;22.10;61.30
11239;DHT22;5677;48.488;13.436;2022-07-06T03:59:18;22.10;61.30
11239;DHT22;5677;48.488;13.436;2022-07-06T04:01:44;22.10;61.30
11239;DHT22;5677;48.488;13.436;2022-07-06T04:04:11;22.10;61.30
11239;DHT22;5677;48.488;13.436;2022-07-06T04:06:38;22.10;61.30
11239;DHT22;5677;48.488;13.436;2022-07-06T04:09:05;22.10;61.30
11239;DHT22;5677;48.488;13.436;2022-07-06T04:11:32;22.10;61.30
11239;DHT22;5677;48.488;13.436;2022-07-06T04:14:01;22.10;61.30
11239;DHT22;5677;48.488;13.436;2022-07-06T04:16:28;22.10;61.30
11239;DHT22;5677;48.488;13.436;2022-07-06T04:18:54;22.10;61.20
11239;DHT22;5677;48.488;13.436;2022-07-06T04:21:21;22.10;61.30
11239;DHT22;5677;48.488;13.436;2022-07-06T04:23:48;22.10;61.20
11239;DHT22;5677;48.488;13.436;2022-07-06T04:26:15;22.10;61.20
11239;DHT22;5677;48.488;13.436;2022-07-06T04:28:42;22.10;61.20
11239;DHT22;5677;48.488;13.436;2022-07-06T04:31:10;22.10;61.20
11239;DHT22;5677;48.488;13.436;2022-07-06T04:33:40;22.10;61.20
11239;DHT22;5677;48.488;13.436;2022-07-06T04:36:07;22.10;61.10
11239;DHT22;5677;48.488;13.436;2022-07-06T04:38:34;22.10;61.10
11239;DHT22;5677;48.488;13.436;2022-07-06T04:41:01;22.00;60.90
11239;DHT22;5677;48.488;13.436;2022-07-06T04:43:29;22.00;60.90
11239;DHT22;5677;48.488;13.436;2022-07-06T04:45:56;22.10;61.00
11239;DHT22;5677;48.488;13.436;2022-07-06T04:48:24;22.10;61.00
11239;DHT22;5677;48.488;13.436;2022-07-06T04:50:51;22.10;61.00
11239;DHT22;5677;48.488;13.436;2022-07-06T04:53:18;22.10;61.00
11239;DHT22;5677;48.488;13.436;2022-07-06T04:55:44;22.10;61.00
11239;DHT22;5677;48.488;13.436;2022-07-06T04:58:11;22.10;61.00
11239;DHT22;5677;48.488;13.436;2022-07-06T05:00:38;22.10;61.00
11239;DHT22;5677;48.488;13.436;2022-07-06T05:03:05;22.10;61.00
11239;DHT22;5677;48.488;13.436;2022-07-06T05:05:33;22.10;61.00
11239;DHT22;5677;48.488;13.436;2022-07-06T05:08:00;22.10;60.90
11239;DHT22;5677;48.488;13.436;2022-07-06T05:10:27;22.10;60.90
11239;DHT22;5677;48.488;13.436;2022-07-06T05:12:54;22.10;60.90
11239;DHT22;5677;48.488;13.436;2022-07-06T05:15:22;22.10;60.90
11239;DHT22;5677;48.488;13.436;2022-07-06T05:17:49;22.10;60.90
11239;DHT22;5677;48.488;13.436;2022-07-06T05:20:15;22.10;60.90
11239;DHT22;5677;48.488;13.436;2022-07-06T05:22:44;22.10;60.90
11239;DHT22;5677;48.488;13.436;2022-07-06T05:25:11;22.10;60.90
11239;DHT22;5677;48.488;13.436;2022-07-06T05:27:38;22.10;60.80
11239;DHT22;5677;48.488;13.436;2022-07-06T05:30:05;22.10;60.90
11239;DHT22;5677;48.488;13.436;2022-07-06T05:32:33;22.10;60.80
11239;DHT22;5677;48.488;13.436;2022-07-06T05:35:00;22.10;60.80
11239;DHT22;5677;48.488;13.436;2022-07-06T05:37:27;22.20;60.70
11239;DHT22;5677;48.488;13.436;2022-07-06T05:39:55;22.20;60.70
11239;DHT22;5677;48.488;13.436;2022-07-06T05:42:22;22.20;60.70
11239;DHT22;5677;48.488;13.436;2022-07-06T05:44:49;22.20;60.60
11239;DHT22;5677;48.488;13.436;2022-07-06T05:47:16;22.20;60.70
11239;DHT22;5677;48.488;13.436;2022-07-06T05:50:00;22.20;60.70
11239;DHT22;5677;48.488;13.436;2022-07-06T05:52:41;22.20;60.50
11239;DHT22;5677;48.488;13.436;2022-07-06T05:55:12;22.20;60.60
11239;DHT22;5677;48.488;13.436;2022-07-06T05:57:39;22.20;60.40
11239;DHT22;5677;48.488;13.436;2022-07-06T06:00:07;22.20;60.50
11239;DHT22;5677;48.488;13.436;2022-07-06T06:02:38;22.20;60.50
11239;DHT22;5677;48.488;13.436;2022-07-06T06:05:06;22.20;60.40
11239;DHT22;5677;48.488;13.436;2022-07-06T06:07:35;22.20;60.40
11239;DHT22;5677;48.488;13.436;2022-07-06T06:10:03;22.20;60.30
11239;DHT22;5677;48.488;13.436;2022-07-06T06:12:33;22.20;60.30
11239;DHT22;5677;48.488;13.436;2022-07-06T06:15:00;22.20;60.30
11239;DHT22;5677;48.488;13.436;2022-07-06T06:17:27;22.30;60.30
11239;DHT22;5677;48.488;13.436;2022-07-06T06:19:54;22.30;60.30
11239;DHT22;5677;48.488;13.436;2022-07-06T06:22:21;22.30;60.30
11239;DHT22;5677;48.488;13.436;2022-07-06T06:24:49;22.30;60.30
11239;DHT22;5677;48.488;13.436;2022-07-06T06:27:16;22.30;60.20
11239;DHT22;5677;48.488;13.436;2022-07-06T06:29:45;22.30;60.10
11239;DHT22;5677;48.488;13.436;2022-07-06T06:32:13;22.30;60.10
11239;DHT22;5677;48.488;13.436;2022-07-06T06:34:40;22.30;60.00
11239;DHT22;5677;48.488;13.436;2022-07-06T06:37:07;22.30;60.00
11239;DHT22;5677;48.488;13.436;2022-07-06T06:39:34;22.40;59.90
11239;DHT22;5677;48.488;13.436;2022-07-06T06:42:01;22.30;59.90
11239;DHT22;5677;48.488;13.436;2022-07-06T06:44:28;22.40;59.90
11239;DHT22;5677;48.488;13.436;2022-07-06T06:46:56;22.40;59.80
11239;DHT22;5677;48.488;13.436;2022-07-06T06:49:23;22.40;59.80
11239;DHT22;5677;48.488;13.436;2022-07-06T06:51:50;22.40;59.70
11239;DHT22;5677;48.488;13.436;2022-07-06T06:54:17;22.40;59.70
11239;DHT22;5677;48.488;13.436;2022-07-06T06:56:44;22.40;59.60
11239;DHT22;5677;48.488;13.436;2022-07-06T06:59:11;22.40;59.60
11239;DHT22;5677;48.488;13.436;2022-07-06T07:01:37;22.50;59.70
11239;DHT22;5677;48.488;13.436;2022-07-06T07:04:06;22.50;59.60
11239;DHT22;5677;48.488;13.436;2022-07-06T07:06:33;22.50;59.60
11239;DHT22;5677;48.488;13.436;2022-07-06T07:09:00;22.50;59.60
11239;DHT22;5677;48.488;13.436;2022-07-06T07:11:27;22.50;59.50
11239;DHT22;5677;48.488;13.436;2022-07-06T07:13:54;22.50;59.50
11239;DHT22;5677;48.488;13.436;2022-07-06T07:16:21;22.50;59.40
11239;DHT22;5677;48.488;13.436;2022-07-06T07:18:49;22.60;59.40
11239;DHT22;5677;48.488;13.436;2022-07-06T07:21:17;22.60;59.30
11239;DHT22;5677;48.488;13.436;2022-07-06T07:23:45;22.60;60.00
11239;DHT22;5677;48.488;13.436;2022-07-06T07:26:12;22.60;59.30
11239;DHT22;5677;48.488;13.436;2022-07-06T07:28:39;22.60;59.30
11239;DHT22;5677;48.488;13.436;2022-07-06T07:31:06;22.60;59.20
11239;DHT22;5677;48.488;13.436;2022-07-06T07:33:33;22.60;59.20
11239;DHT22;5677;48.488;13.436;2022-07-06T07:36:01;22.60;59.10
11239;DHT22;5677;48.488;13.436;2022-07-06T07:38:29;22.60;59.10
11239;DHT22;5677;48.488;13.436;2022-07-06T07:40:56;22.60;59.00
11239;DHT22;5677;48.488;13.436;2022-07-06T07:43:23;22.60;59.00
11239;DHT22;5677;48.488;13.436;2022-07-06T07:45:50;22.70;59.10
11239;DHT22;5677;48.488;13.436;2022-07-06T07:48:16;22.60;58.90
11239;DHT22;5677;48.488;13.436;2022-07-06T07:50:43;22.70;59.00
11239;DHT22;5677;48.488;13.436;2022-07-06T07:53:10;22.60;58.90
11239;DHT22;5677;48.488;13.436;2022-07-06T07:55:39;22.60;58.90
11239;DHT22;5677;48.488;13.436;2022-07-06T07:58:05;22.70;59.00
11239;DHT22;5677;48.488;13.436;2022-07-06T08:00:32;22.70;59.00
11239;DHT22;5677;48.488;13.436;2022-07-06T08:03:00;22.70;58.90
11239;DHT22;5677;48.488;13.436;2022-07-06T08:05:27;22.70;59.00
11239;DHT22;5677;48.488;13.436;2022-07-06T08:07:54;22.70;58.90
11239;DHT22;5677;48.488;13.436;2022-07-06T08:10:20;22.70;58.90
11239;DHT22;5677;48.488;13.436;2022-07-06T08:12:49;22.70;58.90
11239;DHT22;5677;48.488;13.436;2022-07-06T08:15:16;22.80;58.90
11239;DHT22;5677;48.488;13.436;2022-07-06T08:17:43;22.80;58.80
11239;DHT22;5677;48.488;13.436;2022-07-06T08:20:11;22.70;58.90
11239;DHT22;5677;48.488;13.436;2022-07-06T08:22:38;22.80;58.90
11239;DHT22;5677;48.488;13.436;2022-07-06T08:25:07;22.70;58.90
11239;DHT22;5677;48.488;13.436;2022-07-06T08:27:35;22.70;59.00
11239;DHT22;5677;48.488;13.436;2022-07-06T08:30:04;22.70;59.00
11239;DHT22;5677;48.488;13.436;2022-07-06T08:32:32;22.70;59.00
11239;DHT22;5677;48.488;13.436;2022-07-06T08:34:59;22.70;59.00
11239;DHT22;5677;48.488;13.436;2022-07-06T08:37:26;22.70;59.00
11239;DHT22;5677;48.488;13.436;2022-07-06T08:39:53;22.70;59.00
11239;DHT22;5677;48.488;13.436;2022-07-06T08:42:20;22.80;58.90
11239;DHT22;5677;48.488;13.436;2022-07-06T08:44:48;22.70;59.00
11239;DHT22;5677;48.488;13.436;2022-07-06T08:47:21;22.70;58.90
11239;DHT22;5677;48.488;13.436;2022-07-06T08:49:49;22.70;58.90
11239;DHT22;5677;48.488;13.436;2022-07-06T08:52:16;22.70;58.90
11239;DHT22;5677;48.488;13.436;2022-07-06T08:54:44;22.80;58.90
11239;DHT22;5677;48.488;13.436;2022-07-06T08:57:11;22.80;58.90
11239;DHT22;5677;48.488;13.436;2022-07-06T08:59:39;22.70;58.90
11239;DHT22;5677;48.488;13.436;2022-07-06T09:02:06;22.70;58.90
11239;DHT22;5677;48.488;13.436;2022-07-06T09:04:35;22.70;58.80
11239;DHT22;5677;48.488;13.436;2022-07-06T09:07:04;22.70;58.80
11239;DHT22;5677;48.488;13.436;2022-07-06T09:09:31;22.70;58.80
11239;DHT22;5677;48.488;13.436;2022-07-06T09:11:58;22.70;58.80
11239;DHT22;5677;48.488;13.436;2022-07-06T09:14:25;22.70;58.80
11239;DHT22;5677;48.488;13.436;2022-07-06T09:17:03;22.70;58.80
11239;DHT22;5677;48.488;13.436;2022-07-06T09:19:32;22.80;58.80
11239;DHT22;5677;48.488;13.436;2022-07-06T09:22:01;22.70;58.80
11239;DHT22;5677;48.488;13.436;2022-07-06T09:24:29;22.70;58.80
11239;DHT22;5677;48.488;13.436;2022-07-06T09:26:58;22.80;58.80
11239;DHT22;5677;48.488;13.436;2022-07-06T09:29:27;22.80;58.90
11239;DHT22;5677;48.488;13.436;2022-07-06T09:31:59;22.80;58.80
11239;DHT22;5677;48.488;13.436;2022-07-06T09:34:41;22.80;58.90
11239;DHT22;5677;48.488;13.436;2022-07-06T09:37:10;22.80;58.90
11239;DHT22;5677;48.488;13.436;2022-07-06T09:39:37;22.80;58.90
11239;DHT22;5677;48.488;13.436;2022-07-06T09:42:06;22.80;58.90
11239;DHT22;5677;48.488;13.436;2022-07-06T09:44:35;22.80;58.80
11239;DHT22;5677;48.488;13.436;2022-07-06T09:47:04;22.80;58.80
11239;DHT22;5677;48.488;13.436;2022-07-06T09:49:33;22.80;58.80
11239;DHT22;5677;48.488;13.436;2022-07-06T09:52:04;22.80;58.80
11239;DHT22;5677;48.488;13.436;2022-07-06T09:54:33;22.80;58.80
11239;DHT22;5677;48.488;13.436;2022-07-06T09:57:01;22.80;58.80
11239;DHT22;5677;48.488;13.436;2022-07-06T09:59:29;22.80;58.70
11239;DHT22;5677;48.488;13.436;2022-07-06T10:01:59;22.80;58.80
11239;DHT22;5677;48.488;13.436;2022-07-06T10:04:28;22.80;58.80
11239;DHT22;5677;48.488;13.436;2022-07-06T10:06:56;22.80;58.80
11239;DHT22;5677;48.488;13.436;2022-07-06T10:09:27;22.80;58.80
11239;DHT22;5677;48.488;13.436;2022-07-06T10:11:56;22.80;58.80
11239;DHT22;5677;48.488;13.436;2022-07-06T10:14:26;22.80;58.80
11239;DHT22;5677;48.488;13.436;2022-07-06T10:16:55;22.80;58.80
11239;DHT22;5677;48.488;13.436;2022-07-06T10:19:24;22.80;58.80
11239;DHT22;5677;48.488;13.436;2022-07-06T10:21:52;22.90;58.90
11239;DHT22;5677;48.488;13.436;2022-07-06T10:24:20;22.80;58.80
11239;DHT22;5677;48.488;13.436;2022-07-06T10:26:49;22.80;58.90
11239;DHT22;5677;48.488;13.436;2022-07-06T10:29:15;22.80;58.80
11239;DHT22;5677;48.488;13.436;2022-07-06T10:31:44;22.90;58.90
11239;DHT22;5677;48.488;13.436;2022-07-06T10:34:14;22.80;58.80
11239;DHT22;5677;48.488;13.436;2022-07-06T10:36:48;22.80;58.80
11239;DHT22;5677;48.488;13.436;2022-07-06T10:39:31;22.80;58.90
11239;DHT22;5677;48.488;13.436;2022-07-06T10:42:43;22.90;58.90
11239;DHT22;5677;48.488;13.436;2022-07-06T10:45:12;22.80;58.90
11239;DHT22;5677;48.488;13.436;2022-07-06T10:47:41;22.80;58.90
11239;DHT22;5677;48.488;13.436;2022-07-06T10:50:09;22.90;59.00
11239;DHT22;5677;48.488;13.436;2022-07-06T10:52:51;22.90;58.90
11239;DHT22;5677;48.488;13.436;2022-07-06T10:55:31;22.90;59.00
11239;DHT22;5677;48.488;13.436;2022-07-06T10:58:00;22.90;58.90
11239;DHT22;5677;48.488;13.436;2022-07-06T11:00:47;22.90;58.90
11239;DHT22;5677;48.488;13.436;2022-07-06T11:03:33;22.90;58.90
11239;DHT22;5677;48.488;13.436;2022-07-06T11:06:02;22.90;58.90
11239;DHT22;5677;48.488;13.436;2022-07-06T11:08:45;22.90;58.90
11239;DHT22;5677;48.488;13.436;2022-07-06T11:11:22;22.90;58.90
11239;DHT22;5677;48.488;13.436;2022-07-06T11:13:58;22.90;58.90
11239;DHT22;5677;48.488;13.436;2022-07-06T11:16:29;22.90;58.90
11239;DHT22;5677;48.488;13.436;2022-07-06T11:19:07;22.90;58.90
11239;DHT22;5677;48.488;13.436;2022-07-06T11:21:38;22.90;58.90
11239;DHT22;5677;48.488;13.436;2022-07-06T11:24:14;23.00;58.80
11239;DHT22;5677;48.488;13.436;2022-07-06T11:26:43;23.00;58.90
11239;DHT22;5677;48.488;13.436;2022-07-06T11:29:14;23.00;58.80
11239;DHT22;5677;48.488;13.436;2022-07-06T11:31:44;22.90;58.80
11239;DHT22;5677;48.488;13.436;2022-07-06T11:34:13;23.00;58.80
11239;DHT22;5677;48.488;13.436;2022-07-06T11:36:44;23.00;58.70
11239;DHT22;5677;48.488;13.436;2022-07-06T11:39:12;22.90;58.80
11239;DHT22;5677;48.488;13.436;2022-07-06T11:41:39;22.90;58.80
11239;DHT22;5677;48.488;13.436;2022-07-06T11:44:07;23.00;58.80
11239;DHT22;5677;48.488;13.436;2022-07-06T11:46:36;22.90;58.80
11239;DHT22;5677;48.488;13.436;2022-07-06T11:49:04;22.90;58.80
11239;DHT22;5677;48.488;13.436;2022-07-06T11:51:34;23.00;58.80
11239;DHT22;5677;48.488;13.436;2022-07-06T11:54:08;22.90;58.80
11239;DHT22;5677;48.488;13.436;2022-07-06T11:56:37;23.00;58.80
11239;DHT22;5677;48.488;13.436;2022-07-06T11:59:11;23.00;58.80
11239;DHT22;5677;48.488;13.436;2022-07-06T12:01:39;23.00;58.80
11239;DHT22;5677;48.488;13.436;2022-07-06T12:04:09;23.00;58.80
11239;DHT22;5677;48.488;13.436;2022-07-06T12:06:37;22.90;58.80
11239;DHT22;5677;48.488;13.436;2022-07-06T12:09:04;22.90;58.80
11239;DHT22;5677;48.488;13.436;2022-07-06T12:11:33;23.00;58.80
11239;DHT22;5677;48.488;13.436;2022-07-06T12:14:02;23.00;58.80
11239;DHT22;5677;48.488;13.436;2022-07-06T12:16:39;23.00;58.80
11239;DHT22;5677;48.488;13.436;2022-07-06T12:19:06;23.00;58.80
11239;DHT22;5677;48.488;13.436;2022-07-06T12:21:41;23.00;58.80
11239;DHT22;5677;48.488;13.436;2022-07-06T12:24:17;23.00;58.70
11239;DHT22;5677;48.488;13.436;2022-07-06T12:26:46;23.00;58.70
11239;DHT22;5677;48.488;13.436;2022-07-06T12:29:14;23.00;58.70
11239;DHT22;5677;48.488;13.436;2022-07-06T12:31:44;23.00;58.70
11239;DHT22;5677;48.488;13.436;2022-07-06T12:34:17;23.00;58.80
11239;DHT22;5677;48.488;13.436;2022-07-06T12:36:47;23.00;58.80
11239;DHT22;5677;48.488;13.436;2022-07-06T12:39:18;23.00;58.80
11239;DHT22;5677;48.488;13.436;2022-07-06T12:41:48;23.00;58.80
11239;DHT22;5677;48.488;13.436;2022-07-06T12:44:17;23.00;58.80
11239;DHT22;5677;48.488;13.436;2022-07-06T12:46:46;23.00;58.90
11239;DHT22;5677;48.488;13.436;2022-07-06T12:49:16;23.00;58.90
11239;DHT22;5677;48.488;13.436;2022-07-06T12:51:52;22.90;58.90
11239;DHT22;5677;48.488;13.436;2022-07-06T12:54:21;23.00;58.80
11239;DHT22;5677;48.488;13.436;2022-07-06T12:57:06;22.90;58.90
11239;DHT22;5677;48.488;13.436;2022-07-06T12:59:41;22.90;58.90
11239;DHT22;5677;48.488;13.436;2022-07-06T13:02:20;23.00;58.90
11239;DHT22;5677;48.488;13.436;2022-07-06T13:04:57;23.00;59.00
11239;DHT22;5677;48.488;13.436;2022-07-06T13:07:26;23.00;58.90
11239;DHT22;5677;48.488;13.436;2022-07-06T13:09:54;22.90;59.00
11239;DHT22;5677;48.488;13.436;2022-07-06T13:12:22;23.00;58.90
11239;DHT22;5677;48.488;13.436;2022-07-06T13:14:50;22.90;58.90
11239;DHT22;5677;48.488;13.436;2022-07-06T13:17:18;22.90;58.90
11239;DHT22;5677;48.488;13.436;2022-07-06T13:19:45;22.90;58.90
11239;DHT22;5677;48.488;13.436;2022-07-06T13:22:12;23.00;59.00
11239;DHT22;5677;48.488;13.436;2022-07-06T13:24:40;23.00;58.90
11239;DHT22;5677;48.488;13.436;2022-07-06T13:27:08;23.00;58.80
11239;DHT22;5677;48.488;13.436;2022-07-06T13:29:35;23.00;58.80
11239;DHT22;5677;48.488;13.436;2022-07-06T13:32:03;23.00;58.80
11239;DHT22;5677;48.488;13.436;2022-07-06T13:34:32;23.00;58.80
11239;DHT22;5677;48.488;13.436;2022-07-06T13:37:00;23.00;58.80
11239;DHT22;5677;48.488;13.436;2022-07-06T13:39:27;23.00;58.80
11239;DHT22;5677;48.488;13.436;2022-07-06T13:41:54;23.00;58.80
11239;DHT22;5677;48.488;13.436;2022-07-06T13:44:21;23.00;58.80
11239;DHT22;5677;48.488;13.436;2022-07-06T13:46:49;23.00;58.80
11239;DHT22;5677;48.488;13.436;2022-07-06T13:49:17;23.00;58.80
11239;DHT22;5677;48.488;13.436;2022-07-06T13:51:45;23.00;58.80
11239;DHT22;5677;48.488;13.436;2022-07-06T13:54:13;22.90;58.90
11239;DHT22;5677;48.488;13.436;2022-07-06T13:56:40;23.00;58.80
11239;DHT22;5677;48.488;13.436;2022-07-06T13:59:07;23.00;58.80
11239;DHT22;5677;48.488;13.436;2022-07-06T14:01:34;23.00;58.80
11239;DHT22;5677;48.488;13.436;2022-07-06T14:04:01;23.00;58.80
11239;DHT22;5677;48.488;13.436;2022-07-06T14:06:28;23.00;58.80
11239;DHT22;5677;48.488;13.436;2022-07-06T14:08:56;23.00;58.80
11239;DHT22;5677;48.488;13.436;2022-07-06T14:11:23;23.00;58.80
11239;DHT22;5677;48.488;13.436;2022-07-06T14:13:50;23.00;58.80
11239;DHT22;5677;48.488;13.436;2022-07-06T14:16:17;23.00;58.80
11239;DHT22;5677;48.488;13.436;2022-07-06T14:18:44;23.00;58.80
11239;DHT22;5677;48.488;13.436;2022-07-06T14:21:11;23.00;58.80
11239;DHT22;5677;48.488;13.436;2022-07-06T14:23:38;23.00;58.90
11239;DHT22;5677;48.488;13.436;2022-07-06T14:26:06;23.00;58.90
11239;DHT22;5677;48.488;13.436;2022-07-06T14:28:34;23.00;58.80
11239;DHT22;5677;48.488;13.436;2022-07-06T14:31:02;23.00;58.80
11239;DHT22;5677;48.488;13.436;2022-07-06T14:33:28;23.00;58.90
11239;DHT22;5677;48.488;13.436;2022-07-06T14:35:55;23.00;58.80
11239;DHT22;5677;48.488;13.436;2022-07-06T14:38:22;23.00;58.80
11239;DHT22;5677;48.488;13.436;2022-07-06T14:40:49;23.00;58.80
11239;DHT22;5677;48.488;13.436;2022-07-06T14:43:18;23.00;58.80
11239;DHT22;5677;48.488;13.436;2022-07-06T14:45:45;23.00;58.80
11239;DHT22;5677;48.488;13.436;2022-07-06T14:48:12;23.00;58.80
11239;DHT22;5677;48.488;13.436;2022-07-06T14:50:40;23.00;58.80
11239;DHT22;5677;48.488;13.436;2022-07-06T14:53:07;23.00;58.80
11239;DHT22;5677;48.488;13.436;2022-07-06T14:55:34;23.00;58.80
11239;DHT22;5677;48.488;13.436;2022-07-06T14:58:01;23.00;58.80
11239;DHT22;5677;48.488;13.436;2022-07-06T15:00:29;23.00;58.80
11239;DHT22;5677;48.488;13.436;2022-07-06T15:02:56;23.00;58.80
11239;DHT22;5677;48.488;13.436;2022-07-06T15:05:23;23.00;58.80
11239;DHT22;5677;48.488;13.436;2022-07-06T15:07:50;23.00;58.80
11239;DHT22;5677;48.488;13.436;2022-07-06T15:10:17;23.00;58.80
11239;DHT22;5677;48.488;13.436;2022-07-06T15:12:44;23.00;58.80
11239;DHT22;5677;48.488;13.436;2022-07-06T15:15:11;23.00;58.80
11239;DHT22;5677;48.488;13.436;2022-07-06T15:17:39;23.00;58.80
11239;DHT22;5677;48.488;13.436;2022-07-06T15:20:06;23.00;58.80
11239;DHT22;5677;48.488;13.436;2022-07-06T15:22:34;23.00;58.80
11239;DHT22;5677;48.488;13.436;2022-07-06T15:25:01;23.00;58.80
11239;DHT22;5677;48.488;13.436;2022-07-06T15:27:28;23.00;58.80
11239;DHT22;5677;48.488;13.436;2022-07-06T15:29:56;23.00;58.80
11239;DHT22;5677;48.488;13.436;2022-07-06T15:32:23;23.00;58.80
11239;DHT22;5677;48.488;13.436;2022-07-06T15:34:51;23.00;58.80
11239;DHT22;5677;48.488;13.436;2022-07-06T15:37:18;23.00;58.80